sensor_id;sensor_type;location;lat;lon;timestamp;temperature;humidity
66522;SHT31;53349;53.538;8.584;2023-04-30T00:01:34;8.94;63.65
66522;SHT31;53349;53.538;8.584;2023-04-30T00:03:59;8.91;63.81
66522;SHT31;53349;53.538;8.584;2023-04-30T00:06:24;8.88;63.87
66522;SHT31;53349;53.538;8.584;2023-04-30T00:08:50;8.89;63.96
66522;SHT31;53349;53.538;8.584;2023-04-30T00:11:15;8.89;63.84
66522;SHT31;53349;53.538;8.584;2023-04-30T00:13:40;8.87;63.76
66522;SHT31;53349;53.538;8.584;2023-04-30T00:16:05;8.81;63.77
66522;SHT31;53349;53.538;8.584;2023-04-30T00:18:31;8.75;63.84
66522;SHT31;53349;53.538;8.584;2023-04-30T00:20:56;8.80;63.87
66522;SHT31;53349;53.538;8.584;2023-04-30T00:23:21;8.78;63.82
66522;SHT31;53349;53.538;8.584;2023-04-30T00:25:46;8.78;63.63
66522;SHT31;53349;53.538;8.584;2023-04-30T00:28:12;8.73;63.46
66522;SHT31;53349;53.538;8.584;2023-04-30T00:30:37;8.75;63.61
66522;SHT31;53349;53.538;8.584;2023-04-30T00:33:02;8.75;63.88
66522;SHT31;53349;53.538;8.584;2023-04-30T00:35:27;8.71;63.66
66522;SHT31;53349;53.538;8.584;2023-04-30T00:37:53;8.77;63.96
66522;SHT31;53349;53.538;8.584;2023-04-30T00:40:19;8.75;63.97
66522;SHT31;53349;53.538;8.584;2023-04-30T00:42:44;8.68;63.69
66522;SHT31;53349;53.538;8.584;2023-04-30T00:45:10;8.61;63.69
66522;SHT31;53349;53.538;8.584;2023-04-30T00:47:35;8.64;63.75
66522;SHT31;53349;53.538;8.584;2023-04-30T00:50:00;8.63;63.63
66522;SHT31;53349;53.538;8.584;2023-04-30T00:52:26;8.61;63.76
66522;SHT31;53349;53.538;8.584;2023-04-30T00:54:51;8.61;63.69
66522;SHT31;53349;53.538;8.584;2023-04-30T00:57:16;8.60;63.63
66522;SHT31;53349;53.538;8.584;2023-04-30T00:59:42;8.60;63.61
66522;SHT31;53349;53.538;8.584;2023-04-30T01:02:08;8.60;63.97
66522;SHT31;53349;53.538;8.584;2023-04-30T01:04:34;8.59;64.14
66522;SHT31;53349;53.538;8.584;2023-04-30T01:06:59;8.54;64.08
66522;SHT31;53349;53.538;8.584;2023-04-30T01:09:24;8.56;63.98
66522;SHT31;53349;53.538;8.584;2023-04-30T01:12:04;8.54;63.93
66522;SHT31;53349;53.538;8.584;2023-04-30T01:14:59;8.50;64.03
66522;SHT31;53349;53.538;8.584;2023-04-30T01:17:55;8.53;64.15
66522;SHT31;53349;53.538;8.584;2023-04-30T01:20:21;8.49;64.30
66522;SHT31;53349;53.538;8.584;2023-04-30T01:28:04;8.46;64.36
66522;SHT31;53349;53.538;8.584;2023-04-30T01:30:31;8.47;64.22
66522;SHT31;53349;53.538;8.584;2023-04-30T01:32:57;8.47;64.10
66522;SHT31;53349;53.538;8.584;2023-04-30T01:38:34;8.42;64.20
66522;SHT31;53349;53.538;8.584;2023-04-30T01:43:54;8.40;64.02
66522;SHT31;53349;53.538;8.584;2023-04-30T01:46:28;8.37;64.04
66522;SHT31;53349;53.538;8.584;2023-04-30T01:49:18;8.42;64.32
66522;SHT31;53349;53.538;8.584;2023-04-30T01:51:50;8.44;64.31
66522;SHT31;53349;53.538;8.584;2023-04-30T01:57:39;8.40;64.17
66522;SHT31;53349;53.538;8.584;2023-04-30T02:00:08;8.42;64.21
66522;SHT31;53349;53.538;8.584;2023-04-30T02:02:33;8.44;64.29
66522;SHT31;53349;53.538;8.584;2023-04-30T02:04:59;8.39;64.23
66522;SHT31;53349;53.538;8.584;2023-04-30T02:07:43;8.40;64.23
66522;SHT31;53349;53.538;8.584;2023-04-30T02:10:09;8.44;64.15
66522;SHT31;53349;53.538;8.584;2023-04-30T02:12:35;8.44;64.29
66522;SHT31;53349;53.538;8.584;2023-04-30T02:15:01;8.44;64.26
66522;SHT31;53349;53.538;8.584;2023-04-30T02:17:27;8.44;64.16
66522;SHT31;53349;53.538;8.584;2023-04-30T02:19:52;8.47;64.17
66522;SHT31;53349;53.538;8.584;2023-04-30T02:22:17;8.42;64.02
66522;SHT31;53349;53.538;8.584;2023-04-30T02:24:42;8.42;63.99
66522;SHT31;53349;53.538;8.584;2023-04-30T02:27:08;8.43;64.08
66522;SHT31;53349;53.538;8.584;2023-04-30T02:29:33;8.40;64.03
66522;SHT31;53349;53.538;8.584;2023-04-30T02:31:58;8.34;64.10
66522;SHT31;53349;53.538;8.584;2023-04-30T02:34:24;8.33;64.02
66522;SHT31;53349;53.538;8.584;2023-04-30T02:36:49;8.34;63.86
66522;SHT31;53349;53.538;8.584;2023-04-30T02:39:14;8.36;63.99
66522;SHT31;53349;53.538;8.584;2023-04-30T02:41:39;8.33;63.84
66522;SHT31;53349;53.538;8.584;2023-04-30T02:44:05;8.29;63.83
66522;SHT31;53349;53.538;8.584;2023-04-30T02:46:30;8.29;63.60
66522;SHT31;53349;53.538;8.584;2023-04-30T02:48:55;8.26;63.51
66522;SHT31;53349;53.538;8.584;2023-04-30T02:51:20;8.28;63.42
66522;SHT31;53349;53.538;8.584;2023-04-30T02:53:46;8.26;63.37
66522;SHT31;53349;53.538;8.584;2023-04-30T02:56:11;8.23;63.39
66522;SHT31;53349;53.538;8.584;2023-04-30T02:58:36;8.21;63.36
66522;SHT31;53349;53.538;8.584;2023-04-30T03:01:02;8.16;63.33
66522;SHT31;53349;53.538;8.584;2023-04-30T03:03:27;8.15;63.36
66522;SHT31;53349;53.538;8.584;2023-04-30T03:05:52;8.15;63.35
66522;SHT31;53349;53.538;8.584;2023-04-30T03:08:17;8.12;63.39
66522;SHT31;53349;53.538;8.584;2023-04-30T03:10:43;8.10;63.40
66522;SHT31;53349;53.538;8.584;2023-04-30T03:13:08;8.10;63.60
66522;SHT31;53349;53.538;8.584;2023-04-30T03:15:33;8.12;63.60
66522;SHT31;53349;53.538;8.584;2023-04-30T03:17:58;8.10;63.22
66522;SHT31;53349;53.538;8.584;2023-04-30T03:20:24;8.07;63.32
66522;SHT31;53349;53.538;8.584;2023-04-30T03:22:49;8.10;63.17
66522;SHT31;53349;53.538;8.584;2023-04-30T03:25:14;8.10;63.35
66522;SHT31;53349;53.538;8.584;2023-04-30T03:27:39;8.07;63.65
66522;SHT31;53349;53.538;8.584;2023-04-30T03:30:05;8.05;63.77
66522;SHT31;53349;53.538;8.584;2023-04-30T03:32:30;8.02;63.83
66522;SHT31;53349;53.538;8.584;2023-04-30T03:34:56;8.01;64.17
66522;SHT31;53349;53.538;8.584;2023-04-30T03:37:21;8.02;64.18
66522;SHT31;53349;53.538;8.584;2023-04-30T03:39:46;7.95;63.80
66522;SHT31;53349;53.538;8.584;2023-04-30T03:42:11;7.99;63.80
66522;SHT31;53349;53.538;8.584;2023-04-30T03:44:37;7.98;64.05
66522;SHT31;53349;53.538;8.584;2023-04-30T03:47:02;7.98;64.16
66522;SHT31;53349;53.538;8.584;2023-04-30T03:49:27;7.96;64.01
66522;SHT31;53349;53.538;8.584;2023-04-30T03:51:52;7.91;63.85
66522;SHT31;53349;53.538;8.584;2023-04-30T03:54:17;7.94;63.90
66522;SHT31;53349;53.538;8.584;2023-04-30T03:56:43;7.94;63.83
66522;SHT31;53349;53.538;8.584;2023-04-30T03:59:08;7.88;63.85
66522;SHT31;53349;53.538;8.584;2023-04-30T04:01:34;7.88;63.97
66522;SHT31;53349;53.538;8.584;2023-04-30T04:04:00;7.86;63.98
66522;SHT31;53349;53.538;8.584;2023-04-30T04:06:25;7.86;64.02
66522;SHT31;53349;53.538;8.584;2023-04-30T04:08:50;7.88;64.12
66522;SHT31;53349;53.538;8.584;2023-04-30T04:11:16;7.82;64.12
66522;SHT31;53349;53.538;8.584;2023-04-30T04:13:41;7.82;64.35
66522;SHT31;53349;53.538;8.584;2023-04-30T04:16:06;7.82;64.23
66522;SHT31;53349;53.538;8.584;2023-04-30T04:18:31;7.86;64.23
66522;SHT31;53349;53.538;8.584;2023-04-30T04:20:57;7.88;64.10
66522;SHT31;53349;53.538;8.584;2023-04-30T04:23:22;7.86;64.09
66522;SHT31;53349;53.538;8.584;2023-04-30T04:25:47;7.86;64.13
66522;SHT31;53349;53.538;8.584;2023-04-30T04:28:13;7.88;64.17
66522;SHT31;53349;53.538;8.584;2023-04-30T04:30:38;7.92;64.15
66522;SHT31;53349;53.538;8.584;2023-04-30T04:33:03;7.95;64.41
66522;SHT31;53349;53.538;8.584;2023-04-30T04:35:28;7.99;64.77
66522;SHT31;53349;53.538;8.584;2023-04-30T04:37:54;8.03;64.72
66522;SHT31;53349;53.538;8.584;2023-04-30T04:40:19;8.02;64.75
66522;SHT31;53349;53.538;8.584;2023-04-30T04:42:44;8.03;64.99
66522;SHT31;53349;53.538;8.584;2023-04-30T04:45:09;8.03;65.03
66522;SHT31;53349;53.538;8.584;2023-04-30T04:47:35;8.12;65.07
66522;SHT31;53349;53.538;8.584;2023-04-30T04:50:01;8.17;65.17
66522;SHT31;53349;53.538;8.584;2023-04-30T04:52:26;8.26;65.07
66522;SHT31;53349;53.538;8.584;2023-04-30T04:54:52;8.36;64.87
66522;SHT31;53349;53.538;8.584;2023-04-30T04:57:17;8.44;64.52
66522;SHT31;53349;53.538;8.584;2023-04-30T04:59:42;8.54;64.19
66522;SHT31;53349;53.538;8.584;2023-04-30T05:02:08;8.63;63.39
66522;SHT31;53349;53.538;8.584;2023-04-30T05:04:33;8.74;63.27
66522;SHT31;53349;53.538;8.584;2023-04-30T05:06:58;8.84;63.25
66522;SHT31;53349;53.538;8.584;2023-04-30T05:09:24;8.89;62.94
66522;SHT31;53349;53.538;8.584;2023-04-30T05:11:49;9.05;62.28
66522;SHT31;53349;53.538;8.584;2023-04-30T05:14:14;9.10;62.06
66522;SHT31;53349;53.538;8.584;2023-04-30T05:16:40;9.12;61.86
66522;SHT31;53349;53.538;8.584;2023-04-30T05:19:05;9.32;61.83
66522;SHT31;53349;53.538;8.584;2023-04-30T05:21:30;9.47;61.86
66522;SHT31;53349;53.538;8.584;2023-04-30T05:23:55;9.60;61.29
66522;SHT31;53349;53.538;8.584;2023-04-30T05:26:21;9.75;61.41
66522;SHT31;53349;53.538;8.584;2023-04-30T05:28:46;9.91;61.20
66522;SHT31;53349;53.538;8.584;2023-04-30T05:31:11;9.97;61.37
66522;SHT31;53349;53.538;8.584;2023-04-30T05:33:37;10.06;61.59
66522;SHT31;53349;53.538;8.584;2023-04-30T05:36:02;10.13;60.33
66522;SHT31;53349;53.538;8.584;2023-04-30T05:38:28;10.15;60.01
66522;SHT31;53349;53.538;8.584;2023-04-30T05:40:53;10.28;59.63
66522;SHT31;53349;53.538;8.584;2023-04-30T05:43:18;10.34;58.86
66522;SHT31;53349;53.538;8.584;2023-04-30T05:45:43;10.44;59.37
66522;SHT31;53349;53.538;8.584;2023-04-30T05:48:09;10.52;58.82
66522;SHT31;53349;53.538;8.584;2023-04-30T05:50:34;10.61;59.09
66522;SHT31;53349;53.538;8.584;2023-04-30T05:52:59;10.62;57.99
66522;SHT31;53349;53.538;8.584;2023-04-30T05:55:24;10.65;57.68
66522;SHT31;53349;53.538;8.584;2023-04-30T05:57:50;10.68;58.04
66522;SHT31;53349;53.538;8.584;2023-04-30T06:00:15;10.77;57.73
66522;SHT31;53349;53.538;8.584;2023-04-30T06:02:44;10.88;57.42
66522;SHT31;53349;53.538;8.584;2023-04-30T06:05:10;10.96;56.74
66522;SHT31;53349;53.538;8.584;2023-04-30T06:07:35;11.15;57.28
66522;SHT31;53349;53.538;8.584;2023-04-30T06:10:01;11.47;56.44
66522;SHT31;53349;53.538;8.584;2023-04-30T06:12:29;11.71;54.98
66522;SHT31;53349;53.538;8.584;2023-04-30T06:14:55;12.04;54.26
66522;SHT31;53349;53.538;8.584;2023-04-30T06:17:20;12.37;52.83
66522;SHT31;53349;53.538;8.584;2023-04-30T06:19:46;12.80;51.53
66522;SHT31;53349;53.538;8.584;2023-04-30T06:22:11;13.24;50.78
66522;SHT31;53349;53.538;8.584;2023-04-30T06:24:37;13.56;49.61
66522;SHT31;53349;53.538;8.584;2023-04-30T06:27:02;13.52;47.89
66522;SHT31;53349;53.538;8.584;2023-04-30T06:29:28;13.79;47.94
66522;SHT31;53349;53.538;8.584;2023-04-30T06:31:53;14.00;46.64
66522;SHT31;53349;53.538;8.584;2023-04-30T06:34:19;14.55;45.63
66522;SHT31;53349;53.538;8.584;2023-04-30T06:36:45;14.95;44.60
66522;SHT31;53349;53.538;8.584;2023-04-30T06:39:19;15.23;42.27
66522;SHT31;53349;53.538;8.584;2023-04-30T06:41:47;15.78;42.69
66522;SHT31;53349;53.538;8.584;2023-04-30T06:44:13;15.70;43.11
66522;SHT31;53349;53.538;8.584;2023-04-30T06:46:39;16.18;41.90
66522;SHT31;53349;53.538;8.584;2023-04-30T06:49:08;16.72;39.68
66522;SHT31;53349;53.538;8.584;2023-04-30T06:51:33;17.24;38.84
66522;SHT31;53349;53.538;8.584;2023-04-30T06:53:59;17.69;38.24
66522;SHT31;53349;53.538;8.584;2023-04-30T06:56:24;17.95;38.19
66522;SHT31;53349;53.538;8.584;2023-04-30T06:58:50;17.51;38.64
66522;SHT31;53349;53.538;8.584;2023-04-30T07:01:16;17.41;38.23
66522;SHT31;53349;53.538;8.584;2023-04-30T07:03:41;17.45;37.69
66522;SHT31;53349;53.538;8.584;2023-04-30T07:06:06;17.51;37.20
66522;SHT31;53349;53.538;8.584;2023-04-30T07:08:32;17.65;37.23
66522;SHT31;53349;53.538;8.584;2023-04-30T07:10:57;16.86;37.24
66522;SHT31;53349;53.538;8.584;2023-04-30T07:13:23;16.42;38.38
66522;SHT31;53349;53.538;8.584;2023-04-30T07:15:48;16.02;38.95
66522;SHT31;53349;53.538;8.584;2023-04-30T07:18:18;15.43;40.54
66522;SHT31;53349;53.538;8.584;2023-04-30T07:20:43;15.56;41.55
66522;SHT31;53349;53.538;8.584;2023-04-30T07:23:09;16.15;41.08
66522;SHT31;53349;53.538;8.584;2023-04-30T07:25:34;16.42;39.80
66522;SHT31;53349;53.538;8.584;2023-04-30T07:28:00;16.83;39.89
66522;SHT31;53349;53.538;8.584;2023-04-30T07:30:25;16.88;39.41
66522;SHT31;53349;53.538;8.584;2023-04-30T07:32:51;16.87;38.65
66522;SHT31;53349;53.538;8.584;2023-04-30T07:35:17;16.86;38.56
66522;SHT31;53349;53.538;8.584;2023-04-30T07:37:43;16.87;38.34
66522;SHT31;53349;53.538;8.584;2023-04-30T07:40:12;16.91;38.24
66522;SHT31;53349;53.538;8.584;2023-04-30T07:42:39;16.86;38.20
66522;SHT31;53349;53.538;8.584;2023-04-30T07:45:05;16.72;38.62
66522;SHT31;53349;53.538;8.584;2023-04-30T07:47:31;16.79;39.59
66522;SHT31;53349;53.538;8.584;2023-04-30T07:49:56;16.60;39.11
66522;SHT31;53349;53.538;8.584;2023-04-30T07:52:22;16.49;40.01
66522;SHT31;53349;53.538;8.584;2023-04-30T07:54:47;16.42;40.05
66522;SHT31;53349;53.538;8.584;2023-04-30T07:57:13;16.53;39.63
66522;SHT31;53349;53.538;8.584;2023-04-30T07:59:38;16.73;39.31
66522;SHT31;53349;53.538;8.584;2023-04-30T08:02:07;16.67;39.67
66522;SHT31;53349;53.538;8.584;2023-04-30T08:04:32;16.77;40.19
66522;SHT31;53349;53.538;8.584;2023-04-30T08:06:58;16.72;39.94
66522;SHT31;53349;53.538;8.584;2023-04-30T08:09:23;16.79;40.15
66522;SHT31;53349;53.538;8.584;2023-04-30T08:11:49;16.63;40.33
66522;SHT31;53349;53.538;8.584;2023-04-30T08:14:14;16.59;40.72
66522;SHT31;53349;53.538;8.584;2023-04-30T08:16:39;16.42;40.22
66522;SHT31;53349;53.538;8.584;2023-04-30T08:19:05;16.38;40.64
66522;SHT31;53349;53.538;8.584;2023-04-30T08:21:30;16.42;40.96
66522;SHT31;53349;53.538;8.584;2023-04-30T08:23:55;16.44;40.74
66522;SHT31;53349;53.538;8.584;2023-04-30T08:26:21;16.41;40.89
66522;SHT31;53349;53.538;8.584;2023-04-30T08:28:46;16.41;40.63
66522;SHT31;53349;53.538;8.584;2023-04-30T08:31:12;16.22;40.80
66522;SHT31;53349;53.538;8.584;2023-04-30T08:33:37;16.25;41.69
66522;SHT31;53349;53.538;8.584;2023-04-30T08:36:03;16.24;41.20
66522;SHT31;53349;53.538;8.584;2023-04-30T08:38:28;16.38;41.04
66522;SHT31;53349;53.538;8.584;2023-04-30T08:41:10;16.49;41.34
66522;SHT31;53349;53.538;8.584;2023-04-30T08:43:36;16.48;41.04
66522;SHT31;53349;53.538;8.584;2023-04-30T08:46:02;16.59;41.04
66522;SHT31;53349;53.538;8.584;2023-04-30T08:48:28;16.75;40.67
66522;SHT31;53349;53.538;8.584;2023-04-30T08:50:53;16.96;40.53
66522;SHT31;53349;53.538;8.584;2023-04-30T08:53:19;17.06;39.52
66522;SHT31;53349;53.538;8.584;2023-04-30T08:55:45;17.26;43.58
66522;SHT31;53349;53.538;8.584;2023-04-30T08:58:11;17.39;42.74
66522;SHT31;53349;53.538;8.584;2023-04-30T09:00:37;17.44;42.74
66522;SHT31;53349;53.538;8.584;2023-04-30T09:03:03;17.74;41.99
66522;SHT31;53349;53.538;8.584;2023-04-30T09:05:29;17.92;41.79
66522;SHT31;53349;53.538;8.584;2023-04-30T09:07:54;17.88;40.80
66522;SHT31;53349;53.538;8.584;2023-04-30T09:10:21;18.19;40.82
66522;SHT31;53349;53.538;8.584;2023-04-30T09:13:06;18.54;39.51
66522;SHT31;53349;53.538;8.584;2023-04-30T09:15:32;18.75;39.26
66522;SHT31;53349;53.538;8.584;2023-04-30T09:18:12;18.84;39.00
66522;SHT31;53349;53.538;8.584;2023-04-30T09:20:52;19.09;38.43
66522;SHT31;53349;53.538;8.584;2023-04-30T09:23:18;19.04;37.43
66522;SHT31;53349;53.538;8.584;2023-04-30T09:25:43;19.30;39.17
66522;SHT31;53349;53.538;8.584;2023-04-30T09:28:22;19.53;37.65
66522;SHT31;53349;53.538;8.584;2023-04-30T09:34:36;19.91;37.63
66522;SHT31;53349;53.538;8.584;2023-04-30T09:37:05;19.98;37.75
66522;SHT31;53349;53.538;8.584;2023-04-30T09:39:47;20.03;38.13
66522;SHT31;53349;53.538;8.584;2023-04-30T09:45:16;19.97;37.27
66522;SHT31;53349;53.538;8.584;2023-04-30T09:47:41;20.17;37.33
66522;SHT31;53349;53.538;8.584;2023-04-30T09:50:07;20.22;37.22
66522;SHT31;53349;53.538;8.584;2023-04-30T09:52:38;20.25;36.83
66522;SHT31;53349;53.538;8.584;2023-04-30T09:55:07;20.24;37.24
66522;SHT31;53349;53.538;8.584;2023-04-30T10:01:12;19.96;36.70
66522;SHT31;53349;53.538;8.584;2023-04-30T10:03:39;20.29;36.38
66522;SHT31;53349;53.538;8.584;2023-04-30T10:06:06;20.13;37.38
66522;SHT31;53349;53.538;8.584;2023-04-30T10:08:39;20.29;36.99
66522;SHT31;53349;53.538;8.584;2023-04-30T10:11:06;20.22;36.52
66522;SHT31;53349;53.538;8.584;2023-04-30T10:13:41;20.17;37.23
66522;SHT31;53349;53.538;8.584;2023-04-30T10:16:11;20.06;37.77
66522;SHT31;53349;53.538;8.584;2023-04-30T10:18:51;20.03;37.53
66522;SHT31;53349;53.538;8.584;2023-04-30T10:21:17;19.83;37.49
66522;SHT31;53349;53.538;8.584;2023-04-30T10:23:45;19.50;37.49
66522;SHT31;53349;53.538;8.584;2023-04-30T10:26:10;19.55;38.02
66522;SHT31;53349;53.538;8.584;2023-04-30T10:28:35;19.56;37.71
66522;SHT31;53349;53.538;8.584;2023-04-30T10:31:01;19.60;36.85
66522;SHT31;53349;53.538;8.584;2023-04-30T10:33:45;19.73;38.27
66522;SHT31;53349;53.538;8.584;2023-04-30T10:36:13;19.73;36.83
66522;SHT31;53349;53.538;8.584;2023-04-30T10:38:43;19.53;37.61
66522;SHT31;53349;53.538;8.584;2023-04-30T10:41:08;19.55;36.64
66522;SHT31;53349;53.538;8.584;2023-04-30T10:43:35;19.73;36.23
66522;SHT31;53349;53.538;8.584;2023-04-30T10:46:01;19.60;36.50
66522;SHT31;53349;53.538;8.584;2023-04-30T10:48:27;19.32;36.21
66522;SHT31;53349;53.538;8.584;2023-04-30T10:50:57;19.15;36.50
66522;SHT31;53349;53.538;8.584;2023-04-30T10:53:23;19.35;37.18
66522;SHT31;53349;53.538;8.584;2023-04-30T10:56:02;19.18;37.28
66522;SHT31;53349;53.538;8.584;2023-04-30T10:58:33;19.16;36.84
66522;SHT31;53349;53.538;8.584;2023-04-30T11:01:00;19.29;37.52
66522;SHT31;53349;53.538;8.584;2023-04-30T11:03:28;19.49;36.94
66522;SHT31;53349;53.538;8.584;2023-04-30T11:05:53;19.33;36.32
66522;SHT31;53349;53.538;8.584;2023-04-30T11:08:31;19.22;35.83
66522;SHT31;53349;53.538;8.584;2023-04-30T11:10:58;19.12;36.14
66522;SHT31;53349;53.538;8.584;2023-04-30T11:13:25;19.19;37.11
66522;SHT31;53349;53.538;8.584;2023-04-30T11:15:51;19.19;37.17
66522;SHT31;53349;53.538;8.584;2023-04-30T11:18:17;19.22;36.82
66522;SHT31;53349;53.538;8.584;2023-04-30T11:20:49;19.18;36.40
66522;SHT31;53349;53.538;8.584;2023-04-30T11:23:15;18.99;36.09
66522;SHT31;53349;53.538;8.584;2023-04-30T11:25:42;18.91;36.63
66522;SHT31;53349;53.538;8.584;2023-04-30T11:28:24;18.97;37.11
66522;SHT31;53349;53.538;8.584;2023-04-30T11:30:56;18.87;36.97
66522;SHT31;53349;53.538;8.584;2023-04-30T11:33:24;18.78;37.08
66522;SHT31;53349;53.538;8.584;2023-04-30T11:35:50;18.65;36.27
66522;SHT31;53349;53.538;8.584;2023-04-30T11:38:16;18.57;36.66
66522;SHT31;53349;53.538;8.584;2023-04-30T11:40:42;18.51;36.70
66522;SHT31;53349;53.538;8.584;2023-04-30T11:43:26;18.43;37.63
66522;SHT31;53349;53.538;8.584;2023-04-30T11:48:31;18.33;37.69
66522;SHT31;53349;53.538;8.584;2023-04-30T11:50:56;18.26;37.56
66522;SHT31;53349;53.538;8.584;2023-04-30T11:53:26;18.36;38.17
66522;SHT31;53349;53.538;8.584;2023-04-30T11:55:52;18.36;38.02
66522;SHT31;53349;53.538;8.584;2023-04-30T11:58:18;18.22;37.92
66522;SHT31;53349;53.538;8.584;2023-04-30T12:00:43;18.13;37.67
66522;SHT31;53349;53.538;8.584;2023-04-30T12:03:08;18.09;37.50
66522;SHT31;53349;53.538;8.584;2023-04-30T12:05:34;18.00;37.69
66522;SHT31;53349;53.538;8.584;2023-04-30T12:08:02;17.89;38.73
66522;SHT31;53349;53.538;8.584;2023-04-30T12:10:27;17.72;38.91
66522;SHT31;53349;53.538;8.584;2023-04-30T12:12:52;17.83;39.85
66522;SHT31;53349;53.538;8.584;2023-04-30T12:15:20;17.86;40.26
66522;SHT31;53349;53.538;8.584;2023-04-30T12:17:45;17.81;40.27
66522;SHT31;53349;53.538;8.584;2023-04-30T12:20:13;17.69;40.30
66522;SHT31;53349;53.538;8.584;2023-04-30T12:22:39;17.72;40.71
66522;SHT31;53349;53.538;8.584;2023-04-30T12:25:12;17.64;40.06
66522;SHT31;53349;53.538;8.584;2023-04-30T12:27:37;17.64;40.55
66522;SHT31;53349;53.538;8.584;2023-04-30T12:30:05;17.54;41.26
66522;SHT31;53349;53.538;8.584;2023-04-30T12:32:30;17.61;40.93
66522;SHT31;53349;53.538;8.584;2023-04-30T12:35:00;17.57;40.78
66522;SHT31;53349;53.538;8.584;2023-04-30T12:37:25;17.52;41.41
66522;SHT31;53349;53.538;8.584;2023-04-30T12:39:50;17.31;41.90
66522;SHT31;53349;53.538;8.584;2023-04-30T12:42:17;17.31;42.08
66522;SHT31;53349;53.538;8.584;2023-04-30T12:44:43;17.28;42.07
66522;SHT31;53349;53.538;8.584;2023-04-30T12:47:09;17.07;41.59
66522;SHT31;53349;53.538;8.584;2023-04-30T12:49:34;16.96;42.40
66522;SHT31;53349;53.538;8.584;2023-04-30T12:52:07;16.99;42.88
66522;SHT31;53349;53.538;8.584;2023-04-30T12:54:33;17.00;43.00
66522;SHT31;53349;53.538;8.584;2023-04-30T12:57:05;16.96;42.97
66522;SHT31;53349;53.538;8.584;2023-04-30T12:59:32;16.88;43.38
66522;SHT31;53349;53.538;8.584;2023-04-30T13:02:08;16.86;44.00
66522;SHT31;53349;53.538;8.584;2023-04-30T13:04:34;16.90;43.98
66522;SHT31;53349;53.538;8.584;2023-04-30T13:06:59;16.88;44.05
66522;SHT31;53349;53.538;8.584;2023-04-30T13:09:24;16.84;44.19
66522;SHT31;53349;53.538;8.584;2023-04-30T13:11:49;16.76;44.51
66522;SHT31;53349;53.538;8.584;2023-04-30T13:14:15;16.69;44.52
66522;SHT31;53349;53.538;8.584;2023-04-30T13:16:40;16.60;44.61
66522;SHT31;53349;53.538;8.584;2023-04-30T13:19:06;16.57;44.85
66522;SHT31;53349;53.538;8.584;2023-04-30T13:21:31;16.55;45.27
66522;SHT31;53349;53.538;8.584;2023-04-30T13:23:56;16.56;45.47
66522;SHT31;53349;53.538;8.584;2023-04-30T13:26:22;16.52;45.92
66522;SHT31;53349;53.538;8.584;2023-04-30T13:28:47;16.55;45.95
66522;SHT31;53349;53.538;8.584;2023-04-30T13:31:12;16.52;45.34
66522;SHT31;53349;53.538;8.584;2023-04-30T13:33:38;16.45;44.73
66522;SHT31;53349;53.538;8.584;2023-04-30T13:36:03;16.46;45.72
66522;SHT31;53349;53.538;8.584;2023-04-30T13:38:28;16.35;45.39
66522;SHT31;53349;53.538;8.584;2023-04-30T13:40:53;16.39;46.03
66522;SHT31;53349;53.538;8.584;2023-04-30T13:43:19;16.48;45.99
66522;SHT31;53349;53.538;8.584;2023-04-30T13:45:44;16.48;47.39
66522;SHT31;53349;53.538;8.584;2023-04-30T13:48:09;16.53;49.16
66522;SHT31;53349;53.538;8.584;2023-04-30T13:50:35;16.51;48.90
66522;SHT31;53349;53.538;8.584;2023-04-30T13:53:00;16.59;49.37
66522;SHT31;53349;53.538;8.584;2023-04-30T13:55:25;16.53;48.10
66522;SHT31;53349;53.538;8.584;2023-04-30T13:57:50;16.52;47.75
66522;SHT31;53349;53.538;8.584;2023-04-30T14:00:16;16.62;48.50
66522;SHT31;53349;53.538;8.584;2023-04-30T14:02:41;16.59;48.35
66522;SHT31;53349;53.538;8.584;2023-04-30T14:05:07;16.53;48.38
66522;SHT31;53349;53.538;8.584;2023-04-30T14:07:32;16.53;48.85
66522;SHT31;53349;53.538;8.584;2023-04-30T14:09:58;16.57;48.79
66522;SHT31;53349;53.538;8.584;2023-04-30T14:12:23;16.53;48.57
66522;SHT31;53349;53.538;8.584;2023-04-30T14:14:48;16.59;48.42
66522;SHT31;53349;53.538;8.584;2023-04-30T14:17:14;16.49;49.35
66522;SHT31;53349;53.538;8.584;2023-04-30T14:19:39;16.52;48.68
66522;SHT31;53349;53.538;8.584;2023-04-30T14:22:04;16.55;48.65
66522;SHT31;53349;53.538;8.584;2023-04-30T14:24:30;16.59;48.90
66522;SHT31;53349;53.538;8.584;2023-04-30T14:26:55;16.57;48.33
66522;SHT31;53349;53.538;8.584;2023-04-30T14:29:20;16.60;48.11
66522;SHT31;53349;53.538;8.584;2023-04-30T14:31:45;16.55;48.68
66522;SHT31;53349;53.538;8.584;2023-04-30T14:34:11;16.48;48.83
66522;SHT31;53349;53.538;8.584;2023-04-30T14:36:36;16.48;49.01
66522;SHT31;53349;53.538;8.584;2023-04-30T14:39:01;16.49;49.11
66522;SHT31;53349;53.538;8.584;2023-04-30T14:41:26;16.44;48.89
66522;SHT31;53349;53.538;8.584;2023-04-30T14:43:52;16.46;49.12
66522;SHT31;53349;53.538;8.584;2023-04-30T14:46:17;16.44;49.26
66522;SHT31;53349;53.538;8.584;2023-04-30T14:48:42;16.44;49.20
66522;SHT31;53349;53.538;8.584;2023-04-30T14:51:07;16.49;49.14
66522;SHT31;53349;53.538;8.584;2023-04-30T14:53:33;16.49;49.72
66522;SHT31;53349;53.538;8.584;2023-04-30T14:55:58;16.49;49.42
66522;SHT31;53349;53.538;8.584;2023-04-30T14:58:23;16.53;48.99
66522;SHT31;53349;53.538;8.584;2023-04-30T15:00:49;16.49;48.57
66522;SHT31;53349;53.538;8.584;2023-04-30T15:03:14;16.42;48.57
66522;SHT31;53349;53.538;8.584;2023-04-30T15:05:40;16.41;49.19
66522;SHT31;53349;53.538;8.584;2023-04-30T15:08:05;16.35;49.31
66522;SHT31;53349;53.538;8.584;2023-04-30T15:10:31;16.39;48.03
66522;SHT31;53349;53.538;8.584;2023-04-30T15:12:56;16.35;46.52
66522;SHT31;53349;53.538;8.584;2023-04-30T15:15:21;16.39;47.02
66522;SHT31;53349;53.538;8.584;2023-04-30T15:17:47;16.39;47.98
66522;SHT31;53349;53.538;8.584;2023-04-30T15:20:13;16.38;48.77
66522;SHT31;53349;53.538;8.584;2023-04-30T15:22:38;16.33;48.36
66522;SHT31;53349;53.538;8.584;2023-04-30T15:25:04;16.35;47.81
66522;SHT31;53349;53.538;8.584;2023-04-30T15:27:30;16.26;47.03
66522;SHT31;53349;53.538;8.584;2023-04-30T15:29:56;16.19;46.18
66522;SHT31;53349;53.538;8.584;2023-04-30T15:32:21;16.12;47.54
66522;SHT31;53349;53.538;8.584;2023-04-30T15:34:46;16.07;48.48
66522;SHT31;53349;53.538;8.584;2023-04-30T15:37:11;16.07;47.96
66522;SHT31;53349;53.538;8.584;2023-04-30T15:39:37;16.11;47.68
66522;SHT31;53349;53.538;8.584;2023-04-30T15:42:02;16.11;47.44
66522;SHT31;53349;53.538;8.584;2023-04-30T15:44:28;16.07;47.92
66522;SHT31;53349;53.538;8.584;2023-04-30T15:46:54;16.02;47.20
66522;SHT31;53349;53.538;8.584;2023-04-30T15:49:20;15.95;47.32
66522;SHT31;53349;53.538;8.584;2023-04-30T15:51:45;15.93;47.00
66522;SHT31;53349;53.538;8.584;2023-04-30T15:54:11;15.87;46.88
66522;SHT31;53349;53.538;8.584;2023-04-30T15:56:36;15.77;46.87
66522;SHT31;53349;53.538;8.584;2023-04-30T15:59:01;15.73;46.81